FDX1156 KCHA-KBHM
Flight info
| Callsign | FDX1156 |
|---|---|
| Flight time | N/A |
| Altitude | 11000 |
| Route | BHM |
| Aircraft | B752/M-SDE2E3FGHIJ3J4J7RWXY/LB1 |
Departure
| Time | N/A |
|---|---|
| Airport | Chattanooga Metropolitan Airport (Lovell Field) (KCHA) |
Arrival
| Time | 2026-04-24 21:21 |
|---|---|
| Airport | Birmingham-Shuttlesworth International Airport (KBHM) |
| Time | Latitude | Longitude | Altitude | Speed | Heading |
|---|---|---|---|---|---|
| 2026-04-24 21:03 | 34.86020 | -86.31474 | 20014 ft | 360 kts | 263° |
| 2026-04-24 21:03 | 34.85624 | -86.34473 | 20023 ft | 360 kts | 258° |
| 2026-04-24 21:04 | 34.84792 | -86.37222 | 19700 ft | 363 kts | 244° |
| 2026-04-24 21:04 | 34.83334 | -86.39773 | 18761 ft | 374 kts | 229° |
| 2026-04-24 21:04 | 34.81317 | -86.41798 | 17783 ft | 383 kts | 214° |
| 2026-04-24 21:04 | 34.78912 | -86.43112 | 16904 ft | 388 kts | 199° |
| 2026-04-24 21:05 | 34.76230 | -86.43662 | 15842 ft | 398 kts | 185° |
| 2026-04-24 21:05 | 34.73441 | -86.43366 | 14750 ft | 406 kts | 171° |
| 2026-04-24 21:05 | 34.70713 | -86.42529 | 13708 ft | 408 kts | 168° |
| 2026-04-24 21:05 | 34.68000 | -86.41688 | 12956 ft | 398 kts | 169° |
| 2026-04-24 21:06 | 34.65254 | -86.41251 | 11749 ft | 400 kts | 182° |
| 2026-04-24 21:06 | 34.62533 | -86.41438 | 11101 ft | 389 kts | 189° |
| 2026-04-24 21:06 | 34.59837 | -86.41927 | 11221 ft | 399 kts | 192° |
| 2026-04-24 21:06 | 34.57052 | -86.42614 | 11417 ft | 407 kts | 195° |
| 2026-04-24 21:07 | 34.54401 | -86.43352 | 11698 ft | 378 kts | 195° |
| 2026-04-24 21:07 | 34.51902 | -86.44089 | 10950 ft | 362 kts | 197° |
| 2026-04-24 21:07 | 34.49453 | -86.44859 | 11114 ft | 374 kts | 197° |
| 2026-04-24 21:07 | 34.46847 | -86.45704 | 10798 ft | 381 kts | 198° |
| 2026-04-24 21:08 | 34.44336 | -86.46519 | 10837 ft | 385 kts | 198° |
| 2026-04-24 21:08 | 34.41764 | -86.47367 | 10963 ft | 380 kts | 198° |
| 2026-04-24 21:08 | 34.39188 | -86.48217 | 10996 ft | 390 kts | 198° |
| 2026-04-24 21:08 | 34.36575 | -86.49081 | 11167 ft | 379 kts | 198° |
| 2026-04-24 21:09 | 34.33992 | -86.49938 | 11300 ft | 393 kts | 198° |
| 2026-04-24 21:09 | 34.31349 | -86.50813 | 11146 ft | 388 kts | 197° |
| 2026-04-24 21:09 | 34.28807 | -86.51655 | 11189 ft | 382 kts | 197° |
| 2026-04-24 21:09 | 34.26171 | -86.52529 | 11265 ft | 387 kts | 197° |
| 2026-04-24 21:10 | 34.23598 | -86.53380 | 11255 ft | 377 kts | 198° |
| 2026-04-24 21:10 | 34.21165 | -86.54182 | 11201 ft | 352 kts | 198° |
| 2026-04-24 21:10 | 34.18847 | -86.54948 | 11058 ft | 340 kts | 198° |
| 2026-04-24 21:10 | 34.16568 | -86.55703 | 11124 ft | 339 kts | 198° |
| 2026-04-24 21:11 | 34.14325 | -86.56444 | 11042 ft | 329 kts | 198° |
| 2026-04-24 21:11 | 34.12084 | -86.57113 | 10272 ft | 335 kts | 191° |
| 2026-04-24 21:11 | 34.09776 | -86.57097 | 9774 ft | 333 kts | 175° |
| 2026-04-24 21:11 | 34.07482 | -86.56691 | 9202 ft | 329 kts | 176° |
| 2026-04-24 21:12 | 34.05207 | -86.56418 | 8654 ft | 324 kts | 178° |
| 2026-04-24 21:12 | 34.03711 | -86.56272 | 8231 ft | 324 kts | 178° |
| 2026-04-24 21:12 | 34.00760 | -86.56055 | 7480 ft | 320 kts | 179° |
| 2026-04-24 21:12 | 33.98561 | -86.55920 | 7010 ft | 313 kts | 179° |
| 2026-04-24 21:13 | 33.96365 | -86.55793 | 6375 ft | 313 kts | 179° |
| 2026-04-24 21:13 | 33.94222 | -86.55672 | 5882 ft | 308 kts | 179° |
| 2026-04-24 21:13 | 33.92084 | -86.55553 | 5359 ft | 304 kts | 179° |
| 2026-04-24 21:13 | 33.90072 | -86.55441 | 4946 ft | 278 kts | 179° |
| 2026-04-24 21:14 | 33.88221 | -86.55340 | 4837 ft | 258 kts | 180° |
| 2026-04-24 21:14 | 33.86382 | -86.55243 | 4930 ft | 268 kts | 179° |
| 2026-04-24 21:14 | 33.84534 | -86.55145 | 4784 ft | 261 kts | 180° |
| 2026-04-24 21:14 | 33.82726 | -86.55047 | 3839 ft | 267 kts | 180° |
| 2026-04-24 21:15 | 33.80897 | -86.54948 | 3345 ft | 256 kts | 180° |
| 2026-04-24 21:15 | 33.79133 | -86.54854 | 3432 ft | 257 kts | 180° |
| 2026-04-24 21:15 | 33.77297 | -86.54757 | 3460 ft | 264 kts | 180° |
| 2026-04-24 21:15 | 33.75494 | -86.54660 | 3442 ft | 254 kts | 180° |
| 2026-04-24 21:16 | 33.73716 | -86.54565 | 3442 ft | 259 kts | 180° |
| 2026-04-24 21:16 | 33.71878 | -86.54468 | 3449 ft | 263 kts | 180° |
| 2026-04-24 21:16 | 33.70068 | -86.54370 | 3449 ft | 263 kts | 180° |
| 2026-04-24 21:16 | 33.68227 | -86.54440 | 3452 ft | 260 kts | 195° |
| 2026-04-24 21:17 | 33.66625 | -86.55372 | 3480 ft | 258 kts | 219° |
| 2026-04-24 21:17 | 33.65653 | -86.57160 | 3469 ft | 258 kts | 257° |
| 2026-04-24 21:17 | 33.65636 | -86.59294 | 3458 ft | 260 kts | 271° |
| 2026-04-24 21:17 | 33.65483 | -86.60747 | 3238 ft | 264 kts | 250° |
| 2026-04-24 21:18 | 33.64131 | -86.62868 | 2862 ft | 222 kts | 225° |
| 2026-04-24 21:18 | 33.63180 | -86.64124 | 2675 ft | 189 kts | 232° |
| 2026-04-24 21:18 | 33.62417 | -86.65299 | 2440 ft | 168 kts | 233° |
| 2026-04-24 21:18 | 33.61744 | -86.66379 | 2194 ft | 154 kts | 234° |
| 2026-04-24 21:19 | 33.61140 | -86.67382 | 1953 ft | 142 kts | 235° |
| 2026-04-24 21:19 | 33.60585 | -86.68323 | 1728 ft | 132 kts | 236° |
| 2026-04-24 21:19 | 33.60059 | -86.69228 | 1550 ft | 144 kts | 236° |
| 2026-04-24 21:19 | 33.59430 | -86.70318 | 1527 ft | 166 kts | 235° |
| 2026-04-24 21:20 | 33.58283 | -86.72350 | 1202 ft | 141 kts | 233° |
| 2026-04-24 21:20 | 33.57716 | -86.73274 | 895 ft | 137 kts | 235° |
| 2026-04-24 21:20 | 33.57138 | -86.74268 | 762 ft | 145 kts | 234° |
| 2026-04-24 21:21 | 33.56601 | -86.75213 | 650 ft | 127 kts | 233° |
| 2026-04-24 21:21 | 33.56146 | -86.76000 | 626 ft | 88 kts | 240° |
| 2026-04-24 21:21 | 33.55924 | -86.76386 | 626 ft | 29 kts | 234° |
| 2026-04-24 21:21 | 33.55862 | -86.76497 | 623 ft | 9 kts | 237° |
| 2026-04-24 21:22 | 33.55792 | -86.76623 | 621 ft | 50 kts | 236° |
| 2026-04-24 21:22 | 33.55581 | -86.76960 | 616 ft | 30 kts | 217° |
| 2026-04-24 21:22 | 33.55454 | -86.76854 | 614 ft | 27 kts | 92° |
| 2026-04-24 21:22 | 33.55429 | -86.76754 | 613 ft | 16 kts | 155° |